sensor_id;sensor_type;location;lat;lon;timestamp;P1;durP1;ratioP1;P2;durP2;ratioP2
35376;SDS011;21480;51.642;4.834;2022-11-20T00:03:53;124.57;;;113.97;;
35376;SDS011;21480;51.642;4.834;2022-11-20T00:06:20;125.57;;;114.63;;
35376;SDS011;21480;51.642;4.834;2022-11-20T00:08:47;125.40;;;114.60;;
35376;SDS011;21480;51.642;4.834;2022-11-20T00:11:17;127.00;;;115.53;;
35376;SDS011;21480;51.642;4.834;2022-11-20T00:13:44;127.10;;;116.03;;
35376;SDS011;21480;51.642;4.834;2022-11-20T00:16:15;126.53;;;115.53;;
35376;SDS011;21480;51.642;4.834;2022-11-20T00:18:43;127.40;;;116.10;;
35376;SDS011;21480;51.642;4.834;2022-11-20T00:21:16;126.10;;;115.07;;
35376;SDS011;21480;51.642;4.834;2022-11-20T00:23:49;127.00;;;115.93;;
35376;SDS011;21480;51.642;4.834;2022-11-20T00:26:17;126.47;;;115.43;;
35376;SDS011;21480;51.642;4.834;2022-11-20T00:28:48;124.83;;;113.97;;
35376;SDS011;21480;51.642;4.834;2022-11-20T00:31:15;126.67;;;115.27;;
35376;SDS011;21480;51.642;4.834;2022-11-20T00:33:42;127.00;;;115.53;;
35376;SDS011;21480;51.642;4.834;2022-11-20T00:36:16;126.50;;;115.40;;
35376;SDS011;21480;51.642;4.834;2022-11-20T00:38:44;126.43;;;115.27;;
35376;SDS011;21480;51.642;4.834;2022-11-20T00:41:11;125.43;;;114.20;;
35376;SDS011;21480;51.642;4.834;2022-11-20T00:43:40;125.47;;;114.80;;
35376;SDS011;21480;51.642;4.834;2022-11-20T00:46:07;126.70;;;115.57;;
35376;SDS011;21480;51.642;4.834;2022-11-20T00:48:35;127.53;;;116.13;;
35376;SDS011;21480;51.642;4.834;2022-11-20T00:51:00;125.50;;;114.33;;
35376;SDS011;21480;51.642;4.834;2022-11-20T00:53:27;127.73;;;116.43;;
35376;SDS011;21480;51.642;4.834;2022-11-20T00:58:28;125.83;;;114.60;;
35376;SDS011;21480;51.642;4.834;2022-11-20T01:01:03;127.33;;;116.13;;
35376;SDS011;21480;51.642;4.834;2022-11-20T01:03:33;127.17;;;115.93;;
35376;SDS011;21480;51.642;4.834;2022-11-20T01:06:03;128.63;;;116.93;;
35376;SDS011;21480;51.642;4.834;2022-11-20T01:08:35;125.77;;;114.37;;
35376;SDS011;21480;51.642;4.834;2022-11-20T01:11:02;129.03;;;117.33;;
35376;SDS011;21480;51.642;4.834;2022-11-20T01:13:29;128.03;;;116.60;;
35376;SDS011;21480;51.642;4.834;2022-11-20T01:16:15;129.40;;;117.50;;
35376;SDS011;21480;51.642;4.834;2022-11-20T01:18:42;128.03;;;116.17;;
35376;SDS011;21480;51.642;4.834;2022-11-20T01:21:11;126.73;;;115.50;;
35376;SDS011;21480;51.642;4.834;2022-11-20T01:23:39;126.40;;;115.27;;
35376;SDS011;21480;51.642;4.834;2022-11-20T01:26:07;127.80;;;116.33;;
35376;SDS011;21480;51.642;4.834;2022-11-20T01:28:34;126.87;;;115.43;;
35376;SDS011;21480;51.642;4.834;2022-11-20T01:31:00;125.80;;;115.00;;
35376;SDS011;21480;51.642;4.834;2022-11-20T01:33:34;127.60;;;116.23;;
35376;SDS011;21480;51.642;4.834;2022-11-20T01:36:04;128.00;;;116.33;;
35376;SDS011;21480;51.642;4.834;2022-11-20T01:38:30;129.00;;;117.10;;
35376;SDS011;21480;51.642;4.834;2022-11-20T01:40:56;126.50;;;115.20;;
35376;SDS011;21480;51.642;4.834;2022-11-20T01:43:22;128.33;;;116.67;;
35376;SDS011;21480;51.642;4.834;2022-11-20T01:48:26;127.33;;;115.87;;
35376;SDS011;21480;51.642;4.834;2022-11-20T01:50:57;126.87;;;115.37;;
35376;SDS011;21480;51.642;4.834;2022-11-20T01:53:24;126.63;;;114.97;;
35376;SDS011;21480;51.642;4.834;2022-11-20T01:55:53;126.27;;;115.17;;
35376;SDS011;21480;51.642;4.834;2022-11-20T01:58:23;128.67;;;117.13;;
35376;SDS011;21480;51.642;4.834;2022-11-20T02:00:53;127.47;;;115.93;;
35376;SDS011;21480;51.642;4.834;2022-11-20T02:03:19;126.97;;;115.83;;
35376;SDS011;21480;51.642;4.834;2022-11-20T02:08:17;128.17;;;116.47;;
35376;SDS011;21480;51.642;4.834;2022-11-20T02:10:44;127.13;;;115.80;;
35376;SDS011;21480;51.642;4.834;2022-11-20T02:13:09;129.43;;;118.13;;
35376;SDS011;21480;51.642;4.834;2022-11-20T02:15:54;128.63;;;117.17;;
35376;SDS011;21480;51.642;4.834;2022-11-20T02:18:20;127.17;;;115.73;;
35376;SDS011;21480;51.642;4.834;2022-11-20T02:20:47;126.10;;;115.33;;
35376;SDS011;21480;51.642;4.834;2022-11-20T02:26:16;126.00;;;115.03;;
35376;SDS011;21480;51.642;4.834;2022-11-20T02:28:43;126.93;;;115.87;;
35376;SDS011;21480;51.642;4.834;2022-11-20T02:31:09;128.43;;;116.97;;
35376;SDS011;21480;51.642;4.834;2022-11-20T02:33:34;128.43;;;117.00;;
35376;SDS011;21480;51.642;4.834;2022-11-20T02:36:03;126.80;;;115.83;;
35376;SDS011;21480;51.642;4.834;2022-11-20T02:38:29;126.80;;;115.67;;
35376;SDS011;21480;51.642;4.834;2022-11-20T02:40:55;127.40;;;116.33;;
35376;SDS011;21480;51.642;4.834;2022-11-20T02:43:21;126.27;;;115.20;;
35376;SDS011;21480;51.642;4.834;2022-11-20T02:45:47;127.40;;;115.97;;
35376;SDS011;21480;51.642;4.834;2022-11-20T02:48:13;128.60;;;117.30;;
35376;SDS011;21480;51.642;4.834;2022-11-20T02:50:39;126.13;;;115.27;;
35376;SDS011;21480;51.642;4.834;2022-11-20T02:53:05;128.07;;;116.90;;
35376;SDS011;21480;51.642;4.834;2022-11-20T02:55:31;126.20;;;115.07;;
35376;SDS011;21480;51.642;4.834;2022-11-20T02:57:57;126.17;;;115.37;;
35376;SDS011;21480;51.642;4.834;2022-11-20T03:00:23;126.93;;;115.93;;
35376;SDS011;21480;51.642;4.834;2022-11-20T03:02:48;125.77;;;114.57;;
35376;SDS011;21480;51.642;4.834;2022-11-20T03:05:14;124.77;;;114.23;;
35376;SDS011;21480;51.642;4.834;2022-11-20T03:07:40;125.40;;;114.70;;
35376;SDS011;21480;51.642;4.834;2022-11-20T03:10:05;127.27;;;116.07;;
35376;SDS011;21480;51.642;4.834;2022-11-20T03:12:32;127.73;;;116.30;;
35376;SDS011;21480;51.642;4.834;2022-11-20T03:14:57;125.83;;;114.93;;
35376;SDS011;21480;51.642;4.834;2022-11-20T03:17:23;126.23;;;115.67;;
35376;SDS011;21480;51.642;4.834;2022-11-20T03:19:49;125.63;;;114.87;;
35376;SDS011;21480;51.642;4.834;2022-11-20T03:22:15;129.23;;;117.93;;
35376;SDS011;21480;51.642;4.834;2022-11-20T03:24:40;126.90;;;115.77;;
35376;SDS011;21480;51.642;4.834;2022-11-20T03:27:06;125.57;;;114.73;;
35376;SDS011;21480;51.642;4.834;2022-11-20T03:29:32;126.70;;;115.50;;
35376;SDS011;21480;51.642;4.834;2022-11-20T03:31:57;128.50;;;117.33;;
35376;SDS011;21480;51.642;4.834;2022-11-20T03:34:23;127.97;;;116.93;;
35376;SDS011;21480;51.642;4.834;2022-11-20T03:36:49;126.90;;;115.80;;
35376;SDS011;21480;51.642;4.834;2022-11-20T03:39:14;126.03;;;115.30;;
35376;SDS011;21480;51.642;4.834;2022-11-20T03:41:40;125.67;;;114.60;;
35376;SDS011;21480;51.642;4.834;2022-11-20T03:44:08;125.00;;;114.07;;
35376;SDS011;21480;51.642;4.834;2022-11-20T03:46:35;127.10;;;115.63;;
35376;SDS011;21480;51.642;4.834;2022-11-20T03:49:01;125.10;;;114.27;;
35376;SDS011;21480;51.642;4.834;2022-11-20T03:51:27;129.13;;;118.03;;
35376;SDS011;21480;51.642;4.834;2022-11-20T03:53:56;125.13;;;114.37;;
35376;SDS011;21480;51.642;4.834;2022-11-20T03:56:24;127.07;;;115.90;;
35376;SDS011;21480;51.642;4.834;2022-11-20T03:58:52;126.40;;;115.33;;
35376;SDS011;21480;51.642;4.834;2022-11-20T04:01:20;127.40;;;116.50;;
35376;SDS011;21480;51.642;4.834;2022-11-20T04:03:48;126.53;;;115.63;;
35376;SDS011;21480;51.642;4.834;2022-11-20T04:06:15;126.50;;;115.57;;
35376;SDS011;21480;51.642;4.834;2022-11-20T04:08:43;126.63;;;115.60;;
35376;SDS011;21480;51.642;4.834;2022-11-20T04:13:39;125.53;;;114.87;;
35376;SDS011;21480;51.642;4.834;2022-11-20T04:16:06;125.90;;;115.00;;
35376;SDS011;21480;51.642;4.834;2022-11-20T04:18:33;127.30;;;116.40;;
35376;SDS011;21480;51.642;4.834;2022-11-20T04:20:59;127.13;;;115.93;;
35376;SDS011;21480;51.642;4.834;2022-11-20T04:23:26;127.63;;;116.73;;
35376;SDS011;21480;51.642;4.834;2022-11-20T04:25:52;128.13;;;116.60;;
35376;SDS011;21480;51.642;4.834;2022-11-20T04:28:18;127.00;;;115.97;;
35376;SDS011;21480;51.642;4.834;2022-11-20T04:30:44;125.70;;;114.77;;
35376;SDS011;21480;51.642;4.834;2022-11-20T04:33:10;127.73;;;116.17;;
35376;SDS011;21480;51.642;4.834;2022-11-20T04:35:36;127.07;;;116.03;;
35376;SDS011;21480;51.642;4.834;2022-11-20T04:38:02;125.57;;;114.77;;
35376;SDS011;21480;51.642;4.834;2022-11-20T04:40:28;128.07;;;116.63;;
35376;SDS011;21480;51.642;4.834;2022-11-20T04:42:55;126.77;;;115.40;;
35376;SDS011;21480;51.642;4.834;2022-11-20T04:45:21;126.73;;;115.87;;
35376;SDS011;21480;51.642;4.834;2022-11-20T04:47:48;127.57;;;116.10;;
35376;SDS011;21480;51.642;4.834;2022-11-20T04:50:14;127.67;;;116.40;;
35376;SDS011;21480;51.642;4.834;2022-11-20T04:52:40;125.40;;;114.67;;
35376;SDS011;21480;51.642;4.834;2022-11-20T04:55:05;126.03;;;114.93;;
35376;SDS011;21480;51.642;4.834;2022-11-20T04:57:31;126.70;;;115.70;;
35376;SDS011;21480;51.642;4.834;2022-11-20T04:59:57;127.33;;;116.03;;
35376;SDS011;21480;51.642;4.834;2022-11-20T05:02:23;125.80;;;114.97;;
35376;SDS011;21480;51.642;4.834;2022-11-20T05:04:48;125.60;;;114.57;;
35376;SDS011;21480;51.642;4.834;2022-11-20T05:07:14;126.07;;;115.27;;
35376;SDS011;21480;51.642;4.834;2022-11-20T05:09:43;125.77;;;114.53;;
35376;SDS011;21480;51.642;4.834;2022-11-20T05:12:09;127.07;;;115.63;;
35376;SDS011;21480;51.642;4.834;2022-11-20T05:14:35;126.77;;;115.63;;
35376;SDS011;21480;51.642;4.834;2022-11-20T05:17:01;128.07;;;116.13;;
35376;SDS011;21480;51.642;4.834;2022-11-20T05:19:26;127.63;;;116.33;;
35376;SDS011;21480;51.642;4.834;2022-11-20T05:21:52;125.70;;;114.73;;
35376;SDS011;21480;51.642;4.834;2022-11-20T05:24:18;126.23;;;115.30;;
35376;SDS011;21480;51.642;4.834;2022-11-20T05:26:44;126.90;;;115.77;;
35376;SDS011;21480;51.642;4.834;2022-11-20T05:29:12;125.80;;;114.80;;
35376;SDS011;21480;51.642;4.834;2022-11-20T05:31:39;128.27;;;116.67;;
35376;SDS011;21480;51.642;4.834;2022-11-20T05:34:05;127.30;;;116.23;;
35376;SDS011;21480;51.642;4.834;2022-11-20T05:36:31;127.63;;;116.27;;
35376;SDS011;21480;51.642;4.834;2022-11-20T05:38:58;127.60;;;116.13;;
35376;SDS011;21480;51.642;4.834;2022-11-20T05:41:23;128.37;;;117.07;;
35376;SDS011;21480;51.642;4.834;2022-11-20T05:43:50;126.40;;;115.23;;
35376;SDS011;21480;51.642;4.834;2022-11-20T05:46:17;125.63;;;114.80;;
35376;SDS011;21480;51.642;4.834;2022-11-20T05:48:45;125.47;;;114.53;;
35376;SDS011;21480;51.642;4.834;2022-11-20T05:51:12;126.33;;;115.27;;
35376;SDS011;21480;51.642;4.834;2022-11-20T05:53:40;125.30;;;114.27;;
35376;SDS011;21480;51.642;4.834;2022-11-20T05:56:07;127.80;;;116.20;;
35376;SDS011;21480;51.642;4.834;2022-11-20T05:58:37;126.23;;;115.07;;
35376;SDS011;21480;51.642;4.834;2022-11-20T06:01:14;125.70;;;114.47;;
35376;SDS011;21480;51.642;4.834;2022-11-20T06:03:40;125.53;;;114.17;;
35376;SDS011;21480;51.642;4.834;2022-11-20T06:06:12;125.40;;;114.20;;
35376;SDS011;21480;51.642;4.834;2022-11-20T06:08:39;128.67;;;117.10;;
35376;SDS011;21480;51.642;4.834;2022-11-20T06:11:05;127.03;;;115.77;;
35376;SDS011;21480;51.642;4.834;2022-11-20T06:13:32;126.23;;;115.13;;
35376;SDS011;21480;51.642;4.834;2022-11-20T06:15:58;127.17;;;115.57;;
35376;SDS011;21480;51.642;4.834;2022-11-20T06:18:25;127.77;;;116.27;;
35376;SDS011;21480;51.642;4.834;2022-11-20T06:20:58;124.83;;;113.87;;
35376;SDS011;21480;51.642;4.834;2022-11-20T06:23:33;128.40;;;116.03;;
35376;SDS011;21480;51.642;4.834;2022-11-20T06:26:03;126.10;;;114.83;;
35376;SDS011;21480;51.642;4.834;2022-11-20T06:28:31;127.30;;;115.90;;
35376;SDS011;21480;51.642;4.834;2022-11-20T06:30:57;127.33;;;115.70;;
35376;SDS011;21480;51.642;4.834;2022-11-20T06:33:23;126.33;;;115.10;;
35376;SDS011;21480;51.642;4.834;2022-11-20T06:35:49;127.30;;;116.13;;
35376;SDS011;21480;51.642;4.834;2022-11-20T06:38:14;126.60;;;115.00;;
35376;SDS011;21480;51.642;4.834;2022-11-20T06:40:40;126.47;;;114.97;;
35376;SDS011;21480;51.642;4.834;2022-11-20T06:43:07;127.97;;;116.27;;
35376;SDS011;21480;51.642;4.834;2022-11-20T06:45:34;128.83;;;117.47;;
35376;SDS011;21480;51.642;4.834;2022-11-20T06:48:00;127.70;;;116.20;;
35376;SDS011;21480;51.642;4.834;2022-11-20T06:50:26;128.93;;;116.97;;
35376;SDS011;21480;51.642;4.834;2022-11-20T06:52:51;126.43;;;115.03;;
35376;SDS011;21480;51.642;4.834;2022-11-20T06:55:17;128.20;;;116.17;;
35376;SDS011;21480;51.642;4.834;2022-11-20T06:57:42;131.10;;;118.90;;
35376;SDS011;21480;51.642;4.834;2022-11-20T07:00:08;125.80;;;114.40;;
35376;SDS011;21480;51.642;4.834;2022-11-20T07:02:34;128.73;;;116.73;;
35376;SDS011;21480;51.642;4.834;2022-11-20T07:05:00;128.50;;;116.80;;
35376;SDS011;21480;51.642;4.834;2022-11-20T07:07:26;128.70;;;116.87;;
35376;SDS011;21480;51.642;4.834;2022-11-20T07:09:52;129.60;;;117.13;;
35376;SDS011;21480;51.642;4.834;2022-11-20T07:12:17;128.73;;;116.90;;
35376;SDS011;21480;51.642;4.834;2022-11-20T07:14:43;129.70;;;118.03;;
35376;SDS011;21480;51.642;4.834;2022-11-20T07:17:09;126.73;;;115.23;;
35376;SDS011;21480;51.642;4.834;2022-11-20T07:19:34;128.87;;;117.17;;
35376;SDS011;21480;51.642;4.834;2022-11-20T07:22:00;128.43;;;116.37;;
35376;SDS011;21480;51.642;4.834;2022-11-20T07:24:25;129.90;;;118.03;;
35376;SDS011;21480;51.642;4.834;2022-11-20T07:26:51;130.50;;;118.63;;
35376;SDS011;21480;51.642;4.834;2022-11-20T07:29:17;128.17;;;116.47;;
35376;SDS011;21480;51.642;4.834;2022-11-20T07:31:42;128.67;;;116.67;;
35376;SDS011;21480;51.642;4.834;2022-11-20T07:34:08;128.30;;;116.80;;
35376;SDS011;21480;51.642;4.834;2022-11-20T07:36:34;131.63;;;119.50;;
35376;SDS011;21480;51.642;4.834;2022-11-20T07:39:00;130.50;;;118.93;;
35376;SDS011;21480;51.642;4.834;2022-11-20T07:41:26;130.63;;;118.83;;
35376;SDS011;21480;51.642;4.834;2022-11-20T07:43:52;130.57;;;118.60;;
35376;SDS011;21480;51.642;4.834;2022-11-20T07:46:18;130.13;;;118.30;;
35376;SDS011;21480;51.642;4.834;2022-11-20T07:48:44;133.60;;;120.93;;
35376;SDS011;21480;51.642;4.834;2022-11-20T07:51:09;132.40;;;120.03;;
35376;SDS011;21480;51.642;4.834;2022-11-20T07:53:35;133.27;;;121.27;;
35376;SDS011;21480;51.642;4.834;2022-11-20T07:56:01;131.67;;;119.23;;
35376;SDS011;21480;51.642;4.834;2022-11-20T07:58:33;132.50;;;120.23;;
35376;SDS011;21480;51.642;4.834;2022-11-20T08:01:03;129.00;;;117.27;;
35376;SDS011;21480;51.642;4.834;2022-11-20T08:03:30;130.23;;;118.30;;
35376;SDS011;21480;51.642;4.834;2022-11-20T08:05:58;130.83;;;118.70;;
35376;SDS011;21480;51.642;4.834;2022-11-20T08:08:25;130.07;;;118.83;;
35376;SDS011;21480;51.642;4.834;2022-11-20T08:10:51;128.47;;;116.97;;
35376;SDS011;21480;51.642;4.834;2022-11-20T08:13:17;128.70;;;117.70;;
35376;SDS011;21480;51.642;4.834;2022-11-20T08:16:01;130.20;;;118.33;;
35376;SDS011;21480;51.642;4.834;2022-11-20T08:18:27;130.00;;;118.63;;
35376;SDS011;21480;51.642;4.834;2022-11-20T08:20:52;131.47;;;119.37;;
35376;SDS011;21480;51.642;4.834;2022-11-20T08:23:18;129.00;;;117.57;;
35376;SDS011;21480;51.642;4.834;2022-11-20T08:25:48;129.87;;;118.40;;
35376;SDS011;21480;51.642;4.834;2022-11-20T08:28:14;131.53;;;119.87;;
35376;SDS011;21480;51.642;4.834;2022-11-20T08:30:40;129.20;;;117.90;;
35376;SDS011;21480;51.642;4.834;2022-11-20T08:33:06;129.40;;;118.20;;
35376;SDS011;21480;51.642;4.834;2022-11-20T08:35:37;129.93;;;118.67;;
35376;SDS011;21480;51.642;4.834;2022-11-20T08:38:06;131.33;;;119.63;;
35376;SDS011;21480;51.642;4.834;2022-11-20T08:40:32;131.73;;;120.17;;
35376;SDS011;21480;51.642;4.834;2022-11-20T08:42:58;129.47;;;118.27;;
35376;SDS011;21480;51.642;4.834;2022-11-20T08:45:24;130.37;;;118.73;;
35376;SDS011;21480;51.642;4.834;2022-11-20T08:47:49;130.33;;;118.77;;
35376;SDS011;21480;51.642;4.834;2022-11-20T08:50:16;131.43;;;119.47;;
35376;SDS011;21480;51.642;4.834;2022-11-20T08:52:42;134.30;;;121.93;;
35376;SDS011;21480;51.642;4.834;2022-11-20T08:55:08;129.20;;;117.90;;
35376;SDS011;21480;51.642;4.834;2022-11-20T08:57:35;131.40;;;119.93;;
35376;SDS011;21480;51.642;4.834;2022-11-20T09:00:02;131.33;;;119.33;;
35376;SDS011;21480;51.642;4.834;2022-11-20T09:02:30;130.97;;;119.70;;
35376;SDS011;21480;51.642;4.834;2022-11-20T09:04:55;132.03;;;120.37;;
35376;SDS011;21480;51.642;4.834;2022-11-20T09:07:21;130.43;;;119.07;;
35376;SDS011;21480;51.642;4.834;2022-11-20T09:09:47;128.13;;;116.93;;
35376;SDS011;21480;51.642;4.834;2022-11-20T09:12:13;131.70;;;120.20;;
35376;SDS011;21480;51.642;4.834;2022-11-20T09:14:41;129.10;;;118.10;;
35376;SDS011;21480;51.642;4.834;2022-11-20T09:17:09;129.50;;;118.10;;
35376;SDS011;21480;51.642;4.834;2022-11-20T09:19:35;130.40;;;118.83;;
35376;SDS011;21480;51.642;4.834;2022-11-20T09:22:04;130.27;;;119.07;;
35376;SDS011;21480;51.642;4.834;2022-11-20T09:24:29;129.33;;;118.07;;
35376;SDS011;21480;51.642;4.834;2022-11-20T09:26:55;130.10;;;118.47;;
35376;SDS011;21480;51.642;4.834;2022-11-20T09:29:21;128.60;;;117.13;;
35376;SDS011;21480;51.642;4.834;2022-11-20T09:31:46;130.47;;;118.97;;
35376;SDS011;21480;51.642;4.834;2022-11-20T09:34:12;131.30;;;119.93;;
35376;SDS011;21480;51.642;4.834;2022-11-20T09:36:38;132.13;;;120.37;;
35376;SDS011;21480;51.642;4.834;2022-11-20T09:39:03;130.27;;;118.90;;
35376;SDS011;21480;51.642;4.834;2022-11-20T09:55:48;133.37;;;121.43;;
35376;SDS011;21480;51.642;4.834;2022-11-20T09:58:49;134.23;;;122.17;;
35376;SDS011;21480;51.642;4.834;2022-11-20T10:01:21;132.30;;;120.43;;
35376;SDS011;21480;51.642;4.834;2022-11-20T10:03:56;133.77;;;121.93;;
35376;SDS011;21480;51.642;4.834;2022-11-20T10:06:30;132.40;;;120.37;;
35376;SDS011;21480;51.642;4.834;2022-11-20T10:20:29;132.03;;;120.30;;
35376;SDS011;21480;51.642;4.834;2022-11-20T10:23:12;133.33;;;121.50;;
35376;SDS011;21480;51.642;4.834;2022-11-20T10:28:40;134.67;;;122.60;;
35376;SDS011;21480;51.642;4.834;2022-11-20T10:37:14;133.40;;;121.30;;
35376;SDS011;21480;51.642;4.834;2022-11-20T10:56:15;134.77;;;122.67;;
35376;SDS011;21480;51.642;4.834;2022-11-20T11:01:29;135.10;;;123.20;;
35376;SDS011;21480;51.642;4.834;2022-11-20T11:03:55;137.77;;;124.93;;
35376;SDS011;21480;51.642;4.834;2022-11-20T11:09:10;138.80;;;125.57;;
35376;SDS011;21480;51.642;4.834;2022-11-20T11:11:40;135.70;;;122.87;;
35376;SDS011;21480;51.642;4.834;2022-11-20T11:14:11;136.33;;;123.80;;
35376;SDS011;21480;51.642;4.834;2022-11-20T11:16:56;135.57;;;122.63;;
35376;SDS011;21480;51.642;4.834;2022-11-20T11:19:23;137.33;;;124.43;;
35376;SDS011;21480;51.642;4.834;2022-11-20T11:21:50;137.53;;;124.27;;
35376;SDS011;21480;51.642;4.834;2022-11-20T11:24:25;137.10;;;124.13;;
35376;SDS011;21480;51.642;4.834;2022-11-20T11:26:57;139.30;;;125.87;;
35376;SDS011;21480;51.642;4.834;2022-11-20T11:29:36;138.40;;;125.20;;
35376;SDS011;21480;51.642;4.834;2022-11-20T11:32:03;139.73;;;126.33;;
35376;SDS011;21480;51.642;4.834;2022-11-20T11:34:33;138.17;;;124.83;;
35376;SDS011;21480;51.642;4.834;2022-11-20T11:36:59;141.30;;;127.37;;
35376;SDS011;21480;51.642;4.834;2022-11-20T11:39:28;142.53;;;128.30;;
35376;SDS011;21480;51.642;4.834;2022-11-20T11:41:56;139.27;;;125.70;;
35376;SDS011;21480;51.642;4.834;2022-11-20T11:44:32;141.27;;;127.23;;
35376;SDS011;21480;51.642;4.834;2022-11-20T11:53:17;139.90;;;126.43;;
35376;SDS011;21480;51.642;4.834;2022-11-20T11:58:39;140.87;;;126.77;;
35376;SDS011;21480;51.642;4.834;2022-11-20T12:04:15;141.47;;;127.30;;
35376;SDS011;21480;51.642;4.834;2022-11-20T12:06:43;141.47;;;127.37;;
35376;SDS011;21480;51.642;4.834;2022-11-20T12:09:12;142.97;;;129.03;;
35376;SDS011;21480;51.642;4.834;2022-11-20T12:14:17;143.33;;;129.23;;
35376;SDS011;21480;51.642;4.834;2022-11-20T12:16:49;144.83;;;129.47;;
35376;SDS011;21480;51.642;4.834;2022-11-20T12:19:17;143.83;;;129.20;;
35376;SDS011;21480;51.642;4.834;2022-11-20T12:24:49;144.20;;;129.37;;
35376;SDS011;21480;51.642;4.834;2022-11-20T12:30:55;143.47;;;128.53;;
35376;SDS011;21480;51.642;4.834;2022-11-20T12:36:50;143.33;;;128.83;;
35376;SDS011;21480;51.642;4.834;2022-11-20T12:39:42;143.27;;;128.70;;
35376;SDS011;21480;51.642;4.834;2022-11-20T12:45:09;142.27;;;128.03;;
35376;SDS011;21480;51.642;4.834;2022-11-20T12:48:03;146.53;;;130.93;;
35376;SDS011;21480;51.642;4.834;2022-11-20T12:50:48;143.47;;;128.47;;
35376;SDS011;21480;51.642;4.834;2022-11-20T12:59:24;143.10;;;128.57;;
35376;SDS011;21480;51.642;4.834;2022-11-20T13:07:40;141.93;;;127.97;;
35376;SDS011;21480;51.642;4.834;2022-11-20T13:10:13;144.73;;;129.07;;
35376;SDS011;21480;51.642;4.834;2022-11-20T13:12:47;145.00;;;130.33;;
35376;SDS011;21480;51.642;4.834;2022-11-20T13:18:08;145.03;;;129.90;;
35376;SDS011;21480;51.642;4.834;2022-11-20T13:20:36;146.33;;;130.80;;
35376;SDS011;21480;51.642;4.834;2022-11-20T13:23:10;145.07;;;129.50;;
35376;SDS011;21480;51.642;4.834;2022-11-20T13:25:37;145.20;;;130.33;;
35376;SDS011;21480;51.642;4.834;2022-11-20T13:30:36;143.53;;;128.53;;
35376;SDS011;21480;51.642;4.834;2022-11-20T13:33:26;145.27;;;129.73;;
35376;SDS011;21480;51.642;4.834;2022-11-20T13:38:50;146.10;;;130.67;;
35376;SDS011;21480;51.642;4.834;2022-11-20T13:41:27;143.53;;;128.80;;
35376;SDS011;21480;51.642;4.834;2022-11-20T13:47:20;145.37;;;130.03;;
35376;SDS011;21480;51.642;4.834;2022-11-20T13:49:47;146.80;;;130.83;;
35376;SDS011;21480;51.642;4.834;2022-11-20T14:02:43;148.70;;;130.53;;
35376;SDS011;21480;51.642;4.834;2022-11-20T14:05:22;145.03;;;129.27;;
35376;SDS011;21480;51.642;4.834;2022-11-20T14:07:49;151.10;;;131.03;;
35376;SDS011;21480;51.642;4.834;2022-11-20T14:10:34;153.60;;;130.90;;
35376;SDS011;21480;51.642;4.834;2022-11-20T14:13:19;149.43;;;132.97;;
35376;SDS011;21480;51.642;4.834;2022-11-20T14:15:46;146.50;;;129.80;;
35376;SDS011;21480;51.642;4.834;2022-11-20T14:18:13;148.20;;;129.03;;
35376;SDS011;21480;51.642;4.834;2022-11-20T14:20:40;148.13;;;129.10;;
35376;SDS011;21480;51.642;4.834;2022-11-20T14:23:08;165.73;;;132.43;;
35376;SDS011;21480;51.642;4.834;2022-11-20T14:25:35;166.20;;;134.43;;
35376;SDS011;21480;51.642;4.834;2022-11-20T14:28:02;173.87;;;136.17;;
35376;SDS011;21480;51.642;4.834;2022-11-20T14:33:25;176.13;;;133.10;;
35376;SDS011;21480;51.642;4.834;2022-11-20T14:35:52;191.43;;;135.23;;
35376;SDS011;21480;51.642;4.834;2022-11-20T14:38:29;186.27;;;136.53;;
35376;SDS011;21480;51.642;4.834;2022-11-20T14:41:07;199.20;;;132.57;;
35376;SDS011;21480;51.642;4.834;2022-11-20T14:43:56;164.23;;;131.97;;
35376;SDS011;21480;51.642;4.834;2022-11-20T14:46:23;179.03;;;133.57;;
35376;SDS011;21480;51.642;4.834;2022-11-20T14:48:50;197.47;;;135.67;;
35376;SDS011;21480;51.642;4.834;2022-11-20T14:51:23;172.50;;;134.03;;
35376;SDS011;21480;51.642;4.834;2022-11-20T14:54:18;182.30;;;133.60;;
35376;SDS011;21480;51.642;4.834;2022-11-20T14:56:58;178.57;;;131.77;;
35376;SDS011;21480;51.642;4.834;2022-11-20T14:59:30;177.40;;;133.63;;
35376;SDS011;21480;51.642;4.834;2022-11-20T15:02:10;184.87;;;133.43;;
35376;SDS011;21480;51.642;4.834;2022-11-20T15:04:47;186.07;;;131.80;;
35376;SDS011;21480;51.642;4.834;2022-11-20T15:07:28;172.87;;;130.83;;
35376;SDS011;21480;51.642;4.834;2022-11-20T15:09:59;188.13;;;134.87;;
35376;SDS011;21480;51.642;4.834;2022-11-20T15:12:55;194.67;;;132.00;;
35376;SDS011;21480;51.642;4.834;2022-11-20T15:18:18;176.80;;;131.33;;
35376;SDS011;21480;51.642;4.834;2022-11-20T15:20:46;178.00;;;130.27;;
35376;SDS011;21480;51.642;4.834;2022-11-20T15:23:12;180.27;;;131.07;;
35376;SDS011;21480;51.642;4.834;2022-11-20T15:25:40;174.50;;;131.87;;
35376;SDS011;21480;51.642;4.834;2022-11-20T15:28:27;176.77;;;132.37;;
35376;SDS011;21480;51.642;4.834;2022-11-20T15:30:57;165.67;;;129.30;;
35376;SDS011;21480;51.642;4.834;2022-11-20T15:33:23;175.57;;;130.27;;
35376;SDS011;21480;51.642;4.834;2022-11-20T15:35:49;162.60;;;129.00;;
35376;SDS011;21480;51.642;4.834;2022-11-20T15:38:15;167.30;;;129.47;;
35376;SDS011;21480;51.642;4.834;2022-11-20T15:40:41;167.47;;;130.10;;
35376;SDS011;21480;51.642;4.834;2022-11-20T15:43:07;153.60;;;127.73;;
35376;SDS011;21480;51.642;4.834;2022-11-20T15:45:33;166.70;;;129.60;;
35376;SDS011;21480;51.642;4.834;2022-11-20T15:48:11;157.13;;;128.60;;
35376;SDS011;21480;51.642;4.834;2022-11-20T15:50:53;160.63;;;128.53;;
35376;SDS011;21480;51.642;4.834;2022-11-20T15:53:19;153.30;;;127.63;;
35376;SDS011;21480;51.642;4.834;2022-11-20T15:55:45;163.17;;;127.30;;
35376;SDS011;21480;51.642;4.834;2022-11-20T15:58:11;165.17;;;131.17;;
35376;SDS011;21480;51.642;4.834;2022-11-20T16:00:36;147.83;;;125.83;;
35376;SDS011;21480;51.642;4.834;2022-11-20T16:03:02;172.00;;;131.20;;
35376;SDS011;21480;51.642;4.834;2022-11-20T16:05:28;150.27;;;129.37;;
35376;SDS011;21480;51.642;4.834;2022-11-20T16:07:54;151.10;;;133.00;;
35376;SDS011;21480;51.642;4.834;2022-11-20T16:10:21;143.77;;;127.70;;
35376;SDS011;21480;51.642;4.834;2022-11-20T16:12:47;140.17;;;124.33;;
35376;SDS011;21480;51.642;4.834;2022-11-20T16:15:31;141.63;;;126.13;;
35376;SDS011;21480;51.642;4.834;2022-11-20T16:18:17;140.00;;;125.33;;
35376;SDS011;21480;51.642;4.834;2022-11-20T16:20:44;137.30;;;123.10;;
35376;SDS011;21480;51.642;4.834;2022-11-20T16:23:12;136.67;;;123.43;;
35376;SDS011;21480;51.642;4.834;2022-11-20T16:25:38;132.80;;;120.43;;